Time;durP1;ratioP1;P1;durP2;ratioP2;P2;SDS_P1;SDS_P2;PMS_P1;PMS_P2;Temp;Humidity;BMP_temperature;BMP_pressure;BME280_temperature;BME280_humidity;BME280_pressure;Samples;Min_cycle;Max_cycle;Signal;HPM_P1;HPM_P2
2022/12/26 00:01:22;;;;;;;3.78;2.40;;;12.50;99.90;;;;;;5002813;28;20029;-85
2022/12/26 00:03:48;;;;;;;4.38;2.30;;;12.40;99.90;;;;;;4985229;28;20104;-85
2022/12/26 00:06:17;;;;;;;4.00;2.13;;;12.40;99.90;;;;;;5001495;28;20045;-85
2022/12/26 00:08:44;;;;;;;3.20;2.00;;;12.50;99.90;;;;;;5004666;28;20536;-85
2022/12/26 00:11:10;;;;;;;4.20;2.10;;;12.50;99.90;;;;;;4979456;28;20037;-85
2022/12/26 00:13:36;;;;;;;4.07;2.17;;;12.40;99.90;;;;;;4970332;28;20025;-85
2022/12/26 00:16:07;;;;;;;3.93;2.30;;;12.40;99.90;;;;;;4978424;28;20035;-85
2022/12/26 00:18:33;;;;;;;3.50;2.07;;;12.40;99.90;;;;;;5005883;28;20375;-85
2022/12/26 00:20:58;;;;;;;3.75;2.15;;;12.40;99.90;;;;;;4980819;28;20045;-84
2022/12/26 00:23:24;;;;;;;3.77;2.33;;;12.40;99.90;;;;;;4983733;28;20117;-85
2022/12/26 00:25:50;;;;;;;4.07;2.65;;;12.50;99.90;;;;;;4983672;28;20500;-84
2022/12/26 00:28:16;;;;;;;3.75;2.53;;;12.50;99.90;;;;;;4950929;28;20693;-85
2022/12/26 00:30:41;;;;;;;4.17;2.80;;;12.50;99.90;;;;;;4992993;28;20456;-85
2022/12/26 00:33:07;;;;;;;3.50;2.27;;;12.50;99.90;;;;;;4993414;28;20029;-85
2022/12/26 00:35:33;;;;;;;4.65;2.78;;;12.50;99.90;;;;;;4994862;28;20568;-84
2022/12/26 00:37:58;;;;;;;3.53;2.50;;;12.50;99.90;;;;;;5010843;28;20037;-85
2022/12/26 00:40:24;;;;;;;3.70;2.47;;;12.50;99.90;;;;;;4973951;28;20143;-85
2022/12/26 00:42:50;;;;;;;3.90;2.43;;;12.50;99.90;;;;;;4989996;28;20036;-85
2022/12/26 00:45:16;;;;;;;4.85;2.75;;;12.50;99.90;;;;;;4964811;28;20317;-85
2022/12/26 00:47:41;;;;;;;3.67;2.37;;;12.50;99.90;;;;;;4994273;28;20101;-84
2022/12/26 00:50:08;;;;;;;4.43;2.65;;;12.50;99.90;;;;;;4992209;28;20026;-84
2022/12/26 00:52:33;;;;;;;4.15;2.80;;;12.50;99.90;;;;;;4983526;28;20224;-85
2022/12/26 00:54:59;;;;;;;3.97;2.40;;;12.50;99.90;;;;;;4990305;28;20056;-85
2022/12/26 00:57:25;;;;;;;4.73;2.80;;;12.60;99.90;;;;;;4987988;28;20056;-84
2022/12/26 00:59:51;;;;;;;4.33;2.77;;;12.60;99.90;;;;;;4967923;28;20037;-85
2022/12/26 01:05:01;;;;;;;4.45;2.90;;;12.60;99.90;;;;;;5008333;28;20029;-85
2022/12/26 01:07:26;;;;;;;5.17;3.17;;;12.60;99.90;;;;;;4978043;28;20248;-85
2022/12/26 01:09:52;;;;;;;4.20;2.70;;;12.60;99.90;;;;;;4995120;28;20024;-85
2022/12/26 01:12:18;;;;;;;4.10;2.77;;;12.60;99.90;;;;;;4976200;28;20243;-85
2022/12/26 01:14:44;;;;;;;5.90;3.17;;;12.60;99.90;;;;;;4956701;28;20318;-84
2022/12/26 01:17:09;;;;;;;4.53;2.60;;;12.60;99.90;;;;;;4996567;28;20038;-85
2022/12/26 01:19:36;;;;;;;3.53;2.30;;;12.50;99.90;;;;;;4998001;28;20033;-85
2022/12/26 01:22:02;;;;;;;3.90;2.63;;;12.50;99.90;;;;;;4967191;28;21139;-85
2022/12/26 01:24:27;;;;;;;4.60;2.80;;;12.60;99.90;;;;;;4980735;28;20279;-84
2022/12/26 01:26:53;;;;;;;3.88;2.50;;;12.50;99.90;;;;;;4990565;28;20610;-85
2022/12/26 01:29:19;;;;;;;4.63;2.70;;;12.50;99.90;;;;;;4988215;28;20618;-85
2022/12/26 01:31:44;;;;;;;3.63;2.40;;;12.40;99.90;;;;;;4971564;28;20051;-85
2022/12/26 01:34:10;;;;;;;4.40;2.50;;;12.40;99.90;;;;;;4978002;28;20719;-85
2022/12/26 01:36:36;;;;;;;3.90;2.60;;;12.40;99.90;;;;;;4973726;28;20489;-85
2022/12/26 01:39:02;;;;;;;3.53;2.43;;;12.40;99.90;;;;;;4980462;28;20834;-85
2022/12/26 01:41:29;;;;;;;3.70;2.40;;;12.30;99.90;;;;;;4976567;28;20033;-85
2022/12/26 01:43:56;;;;;;;3.65;2.53;;;12.30;99.90;;;;;;4974619;28;20394;-85
2022/12/26 01:46:31;;;;;;;3.80;2.53;;;12.30;99.90;;;;;;4971826;28;20557;-84
2022/12/26 01:49:05;;;;;;;3.70;2.33;;;12.30;99.90;;;;;;4985274;28;20199;-85
2022/12/26 01:51:35;;;;;;;3.85;2.22;;;12.30;99.90;;;;;;4990332;28;20417;-85
2022/12/26 01:54:03;;;;;;;3.20;2.13;;;12.20;99.90;;;;;;4997449;28;24102;-85
2022/12/26 01:56:33;;;;;;;3.40;2.20;;;12.20;99.90;;;;;;4996887;28;20390;-85
2022/12/26 01:59:14;;;;;;;3.00;2.00;;;12.20;99.90;;;;;;4975614;28;20555;-85
2022/12/26 02:01:41;;;;;;;3.03;1.80;;;12.20;99.90;;;;;;4996098;28;20083;-84
2022/12/26 02:06:56;;;;;;;2.80;1.95;;;12.10;99.90;;;;;;5000355;28;20267;-85
2022/12/26 02:09:22;;;;;;;2.33;1.55;;;12.10;99.90;;;;;;4977143;28;20072;-84
2022/12/26 02:11:55;;;;;;;3.17;2.03;;;12.00;99.90;;;;;;4962629;28;20028;-85
2022/12/26 02:14:21;;;;;;;2.95;1.80;;;12.00;99.90;;;;;;4990241;28;20394;-86
2022/12/26 02:16:47;;;;;;;2.90;1.80;;;12.00;99.90;;;;;;4984411;28;20541;-85
2022/12/26 02:19:32;;;;;;;2.58;1.80;;;12.00;99.90;;;;;;4988340;28;20094;-84
2022/12/26 02:22:18;;;;;;;2.47;1.63;;;12.00;99.90;;;;;;4998513;28;20419;-85
2022/12/26 02:24:56;;;;;;;3.03;1.83;;;11.90;99.90;;;;;;4989359;28;20081;-85
2022/12/26 02:27:44;;;;;;;3.05;2.05;;;11.90;99.90;;;;;;4981813;28;20060;-85
2022/12/26 02:30:24;;;;;;;2.85;2.00;;;11.90;99.90;;;;;;4970639;28;20076;-85
2022/12/26 02:33:01;;;;;;;2.92;1.88;;;11.90;99.90;;;;;;4967944;28;20086;-85
2022/12/26 02:35:33;;;;;;;2.70;1.80;;;11.80;99.90;;;;;;5006031;28;20037;-85
2022/12/26 02:38:14;;;;;;;3.10;1.98;;;11.80;99.90;;;;;;4982643;28;20068;-85
2022/12/26 02:41:18;;;;;;;2.50;1.80;;;11.80;99.90;;;;;;4984650;28;20029;-85
2022/12/26 02:43:58;;;;;;;3.22;1.80;;;11.80;99.90;;;;;;4985827;28;20044;-85
2022/12/26 02:49:26;;;;;;;3.50;2.50;;;11.80;99.90;;;;;;4982306;28;20032;-85
2022/12/26 03:15:21;;;;;;;5.65;3.10;;;11.70;99.90;;;;;;4984581;28;20021;-85
2022/12/26 03:17:55;;;;;;;5.73;3.30;;;11.60;99.90;;;;;;4971295;28;20022;-85
2022/12/26 03:20:26;;;;;;;5.55;3.38;;;11.60;99.90;;;;;;4968297;28;20037;-85
2022/12/26 03:22:55;;;;;;;4.78;3.05;;;11.60;99.90;;;;;;4994998;28;20109;-85
2022/12/26 03:28:11;;;;;;;4.47;2.65;;;11.60;99.90;;;;;;4986750;28;20045;-85
2022/12/26 03:30:48;;;;;;;5.50;3.33;;;11.60;99.90;;;;;;4975167;28;20029;-85
2022/12/26 03:36:28;;;;;;;5.28;3.10;;;11.60;99.90;;;;;;4993987;28;20771;-85
2022/12/26 03:38:57;;;;;;;4.80;2.70;;;11.60;99.90;;;;;;4995674;28;20526;-85
2022/12/26 04:20:13;;;;;;;2.42;1.20;;;11.70;99.90;;;;;;4965856;28;20244;-85
2022/12/26 04:45:30;;;;;;;1.77;1.10;;;11.80;99.90;;;;;;4996009;28;20489;-85
2022/12/26 04:50:51;;;;;;;1.70;1.10;;;11.80;99.90;;;;;;4968644;28;20486;-85
2022/12/26 04:53:18;;;;;;;2.40;1.48;;;11.80;99.90;;;;;;4990683;28;20440;-85
2022/12/26 04:55:44;;;;;;;1.90;1.20;;;11.80;99.90;;;;;;4986854;28;20392;-85
2022/12/26 04:58:09;;;;;;;2.17;1.30;;;11.80;99.90;;;;;;5000012;28;20411;-86
2022/12/26 05:00:35;;;;;;;2.05;1.50;;;11.80;99.90;;;;;;4964771;28;20505;-88
2022/12/26 05:11:27;;;;;;;2.00;1.20;;;11.90;99.90;;;;;;5002604;28;20354;-88
2022/12/26 05:13:55;;;;;;;1.87;1.20;;;11.90;99.90;;;;;;4970356;28;20254;-88
2022/12/26 05:30:21;;;;;;;1.73;1.23;;;11.90;99.90;;;;;;5003892;28;20533;-88
2022/12/26 05:35:32;;;;;;;2.90;1.70;;;11.90;99.90;;;;;;5004394;28;20017;-88
2022/12/26 05:37:58;;;;;;;3.27;1.63;;;11.90;99.90;;;;;;4965860;28;20107;-88
2022/12/26 05:40:24;;;;;;;3.28;1.40;;;12.00;99.90;;;;;;4988807;28;20104;-88
2022/12/26 05:42:49;;;;;;;2.00;1.45;;;12.00;99.90;;;;;;4967623;28;20037;-87
2022/12/26 05:45:15;;;;;;;2.60;1.40;;;12.00;99.90;;;;;;5000081;28;20057;-89
2022/12/26 05:47:41;;;;;;;2.05;1.42;;;12.00;99.90;;;;;;4961940;28;20207;-88
2022/12/26 05:50:07;;;;;;;2.03;1.50;;;12.00;99.90;;;;;;4974778;28;20021;-87
2022/12/26 05:52:33;;;;;;;2.72;1.80;;;12.10;99.90;;;;;;4981462;28;20037;-89
2022/12/26 05:54:59;;;;;;;2.80;1.52;;;12.10;99.90;;;;;;4954783;28;20035;-87
2022/12/26 05:57:25;;;;;;;2.53;1.60;;;12.10;99.90;;;;;;4988160;28;20029;-88
2022/12/26 05:59:51;;;;;;;3.30;1.80;;;12.10;99.90;;;;;;4984720;28;20240;-88
2022/12/26 06:02:16;;;;;;;2.70;1.70;;;12.10;99.90;;;;;;4966435;28;20131;-88
2022/12/26 06:04:42;;;;;;;2.55;1.50;;;12.20;99.90;;;;;;4970902;28;20033;-87
2022/12/26 06:07:08;;;;;;;2.17;1.55;;;12.20;99.90;;;;;;4978587;28;20033;-86
2022/12/26 06:09:34;;;;;;;2.53;1.83;;;12.20;99.90;;;;;;4975844;28;20772;-85
2022/12/26 06:12:00;;;;;;;2.30;1.75;;;12.20;99.90;;;;;;4977862;28;20017;-85
2022/12/26 06:14:25;;;;;;;2.60;1.70;;;12.20;99.90;;;;;;4977425;28;20496;-86
2022/12/26 06:16:51;;;;;;;2.95;1.80;;;12.20;99.90;;;;;;4975016;28;20076;-85
2022/12/26 06:19:17;;;;;;;2.47;1.70;;;12.20;99.90;;;;;;4967422;28;20021;-85
2022/12/26 06:21:43;;;;;;;3.30;1.90;;;12.30;99.90;;;;;;5008057;28;20604;-86
2022/12/26 06:24:08;;;;;;;2.65;1.60;;;12.30;99.90;;;;;;4958813;28;20476;-86
2022/12/26 06:26:34;;;;;;;3.57;1.83;;;12.30;99.90;;;;;;4965449;28;20044;-85
2022/12/26 06:29:00;;;;;;;2.28;1.67;;;12.30;99.90;;;;;;4989724;28;20122;-85
2022/12/26 06:31:26;;;;;;;2.70;1.80;;;12.30;99.90;;;;;;4980349;28;20318;-85
2022/12/26 06:34:00;;;;;;;1.75;1.40;;;12.30;99.90;;;;;;4980333;28;20166;-85
2022/12/26 06:36:28;;;;;;;2.33;1.48;;;12.30;99.90;;;;;;4971369;28;20227;-86
2022/12/26 06:38:55;;;;;;;2.53;1.63;;;12.20;99.90;;;;;;4975063;28;20463;-85
2022/12/26 06:41:23;;;;;;;2.90;1.70;;;12.20;99.90;;;;;;4951734;28;20656;-85
2022/12/26 06:43:49;;;;;;;2.70;1.63;;;12.20;99.90;;;;;;5007996;28;20010;-85
2022/12/26 06:46:17;;;;;;;2.40;1.55;;;12.20;99.90;;;;;;4974461;28;20041;-86
2022/12/26 06:48:43;;;;;;;2.17;1.50;;;12.20;99.90;;;;;;4981482;28;20037;-85
2022/12/26 06:51:19;;;;;;;2.40;1.70;;;12.20;99.90;;;;;;4970147;28;20013;-85
2022/12/26 06:53:45;;;;;;;2.67;1.50;;;12.30;99.90;;;;;;4955486;28;20053;-85
2022/12/26 06:56:16;;;;;;;2.28;1.40;;;12.20;99.90;;;;;;4947823;28;20023;-85
2022/12/26 06:58:42;;;;;;;2.33;1.60;;;12.20;99.90;;;;;;4989313;28;20037;-85
2022/12/26 07:01:14;;;;;;;2.40;1.60;;;12.30;99.90;;;;;;4964642;28;20750;-88
2022/12/26 07:03:41;;;;;;;3.55;1.95;;;12.30;99.90;;;;;;4993269;28;20028;-89
2022/12/26 07:06:12;;;;;;;3.55;1.77;;;12.30;99.90;;;;;;4960879;28;20050;-89
2022/12/26 07:08:38;;;;;;;2.85;1.70;;;12.30;99.90;;;;;;4994317;28;20381;-86
2022/12/26 07:11:04;;;;;;;1.80;1.20;;;12.30;99.90;;;;;;4949537;28;20017;-85
2022/12/26 07:13:30;;;;;;;2.95;1.60;;;12.30;99.90;;;;;;4977289;28;20160;-85
2022/12/26 07:15:59;;;;;;;1.30;1.20;;;12.30;99.90;;;;;;4990059;28;20041;-86
2022/12/26 07:18:25;;;;;;;2.03;1.30;;;12.30;99.90;;;;;;4995161;28;20235;-86
2022/12/26 07:20:51;;;;;;;1.23;1.10;;;12.30;99.90;;;;;;4988960;28;20022;-85
2022/12/26 07:23:17;;;;;;;1.63;1.33;;;12.30;99.90;;;;;;4972940;28;20379;-86
2022/12/26 07:25:46;;;;;;;1.87;1.10;;;12.30;99.90;;;;;;4993026;28;20605;-87
2022/12/26 07:28:12;;;;;;;1.25;1.02;;;12.20;99.90;;;;;;4967767;28;20033;-86
2022/12/26 07:30:38;;;;;;;2.17;1.17;;;12.30;99.90;;;;;;5008311;28;20521;-86
2022/12/26 07:33:04;;;;;;;1.77;1.10;;;12.20;99.90;;;;;;4995205;28;20680;-85
2022/12/26 07:35:29;;;;;;;1.60;1.00;;;12.20;99.90;;;;;;5004439;28;20022;-85
2022/12/26 07:37:55;;;;;;;1.23;1.00;;;12.20;99.90;;;;;;4984071;28;20026;-85
2022/12/26 07:40:21;;;;;;;1.77;0.90;;;12.20;99.90;;;;;;4959697;28;20030;-85
2022/12/26 07:42:46;;;;;;;1.25;0.90;;;12.20;99.90;;;;;;4968583;28;20101;-86
2022/12/26 07:45:13;;;;;;;1.10;0.90;;;12.10;99.90;;;;;;4974130;28;20063;-85
2022/12/26 07:47:38;;;;;;;1.20;0.88;;;12.10;99.90;;;;;;5006534;28;20033;-86
2022/12/26 07:50:06;;;;;;;1.13;0.73;;;12.10;99.90;;;;;;4981730;28;20033;-86
2022/12/26 07:52:31;;;;;;;1.10;0.90;;;12.10;99.90;;;;;;4978317;28;20111;-86
2022/12/26 07:54:57;;;;;;;2.88;0.93;;;12.00;99.90;;;;;;4991434;28;20051;-85
2022/12/26 07:57:23;;;;;;;1.48;0.98;;;12.00;99.90;;;;;;4950259;28;20291;-85
2022/12/26 07:59:49;;;;;;;1.97;0.90;;;12.00;99.90;;;;;;4989859;28;20040;-86
2022/12/26 08:02:15;;;;;;;1.52;1.08;;;12.00;99.90;;;;;;4972855;28;20033;-85
2022/12/26 08:04:41;;;;;;;1.30;1.00;;;12.00;99.90;;;;;;4973994;28;20146;-85
2022/12/26 08:07:06;;;;;;;2.53;0.90;;;12.00;99.90;;;;;;4980514;28;20049;-86
2022/12/26 08:09:32;;;;;;;1.40;0.90;;;12.00;99.90;;;;;;4968616;28;20422;-85
2022/12/26 08:11:58;;;;;;;1.33;0.90;;;12.00;99.90;;;;;;4978827;28;20103;-85
2022/12/26 08:14:24;;;;;;;1.35;1.00;;;11.90;99.90;;;;;;4968339;28;20025;-85
2022/12/26 08:16:49;;;;;;;2.47;1.00;;;11.90;99.90;;;;;;4974603;28;20100;-86
2022/12/26 08:19:15;;;;;;;1.95;1.10;;;11.90;99.90;;;;;;4969375;28;20022;-86
2022/12/26 08:21:41;;;;;;;2.17;1.20;;;11.90;99.90;;;;;;4972432;28;20021;-85
2022/12/26 08:24:07;;;;;;;2.55;1.17;;;11.90;99.90;;;;;;4968417;28;20069;-86
2022/12/26 08:26:32;;;;;;;2.30;1.07;;;11.90;99.90;;;;;;4974938;28;20028;-85
2022/12/26 08:28:58;;;;;;;1.35;0.90;;;11.90;99.90;;;;;;4968565;28;20036;-85
2022/12/26 08:31:24;;;;;;;1.80;0.90;;;11.90;99.90;;;;;;4995490;28;20056;-85
2022/12/26 08:33:53;;;;;;;2.67;1.20;;;11.90;99.90;;;;;;4976402;28;20641;-85
2022/12/26 08:36:18;;;;;;;1.75;0.90;;;11.90;99.90;;;;;;4967271;28;20029;-86
2022/12/26 08:38:44;;;;;;;1.70;1.00;;;11.90;99.90;;;;;;4995342;28;20087;-86
2022/12/26 08:41:10;;;;;;;1.48;0.90;;;11.90;99.90;;;;;;4977583;28;20091;-86
2022/12/26 08:43:37;;;;;;;1.95;0.98;;;11.90;99.90;;;;;;4982775;28;20125;-86
2022/12/26 08:46:05;;;;;;;1.80;1.00;;;11.90;99.90;;;;;;4975560;28;20033;-85
2022/12/26 08:48:31;;;;;;;3.60;0.93;;;11.90;99.90;;;;;;4993838;28;20033;-86
2022/12/26 08:51:03;;;;;;;1.90;0.88;;;12.00;99.90;;;;;;4965544;28;20434;-85
2022/12/26 08:53:31;;;;;;;1.67;0.90;;;11.90;99.90;;;;;;4975442;28;20487;-87
2022/12/26 08:55:58;;;;;;;1.40;0.93;;;12.00;99.90;;;;;;4987915;28;20780;-87
2022/12/26 08:58:24;;;;;;;2.27;0.90;;;12.00;99.90;;;;;;4951452;28;20136;-88
2022/12/26 09:00:50;;;;;;;1.98;1.10;;;12.00;99.90;;;;;;4980128;28;20025;-88
2022/12/26 09:03:16;;;;;;;1.98;1.00;;;12.00;99.90;;;;;;4973413;28;20160;-88
2022/12/26 09:05:42;;;;;;;2.15;0.93;;;12.10;99.90;;;;;;4980582;28;20124;-88
2022/12/26 09:08:09;;;;;;;1.58;0.90;;;12.10;99.90;;;;;;4967286;28;20025;-88
2022/12/26 09:10:36;;;;;;;2.43;1.17;;;12.10;99.90;;;;;;4987671;28;20082;-88
2022/12/26 09:13:02;;;;;;;1.80;0.90;;;12.10;99.90;;;;;;4972823;28;20266;-87
2022/12/26 09:15:28;;;;;;;1.88;0.90;;;12.20;99.90;;;;;;4968473;28;20036;-88
2022/12/26 09:17:53;;;;;;;1.00;0.83;;;12.20;99.90;;;;;;4973729;28;20025;-88
2022/12/26 09:20:19;;;;;;;0.90;0.80;;;12.30;99.90;;;;;;4995767;28;20080;-87
2022/12/26 09:22:51;;;;;;;2.25;1.10;;;12.30;99.90;;;;;;4988069;28;20080;-88
2022/12/26 09:25:18;;;;;;;2.38;0.95;;;12.30;99.90;;;;;;4992099;28;20018;-87
2022/12/26 09:27:44;;;;;;;2.27;1.00;;;12.40;99.90;;;;;;4977553;28;20029;-88
2022/12/26 09:30:11;;;;;;;2.53;1.20;;;12.40;99.90;;;;;;4961868;28;20022;-88
2022/12/26 09:32:37;;;;;;;3.13;1.08;;;12.40;99.90;;;;;;4987303;28;20025;-88
2022/12/26 09:35:03;;;;;;;1.73;1.05;;;12.40;99.90;;;;;;4990633;28;20458;-87
2022/12/26 09:37:30;;;;;;;2.03;0.90;;;12.40;99.90;;;;;;4996366;28;20057;-88
2022/12/26 09:39:56;;;;;;;1.65;0.90;;;12.40;99.90;;;;;;4986379;28;20238;-88
2022/12/26 09:42:45;;;;;;;1.35;0.90;;;12.40;99.90;;;;;;4952132;28;20041;-87
2022/12/26 09:45:15;;;;;;;3.47;1.17;;;12.40;99.90;;;;;;4957444;28;20036;-86
2022/12/26 09:47:50;;;;;;;1.70;0.90;;;12.50;99.90;;;;;;4962637;28;20375;-88
2022/12/26 09:50:26;;;;;;;1.10;1.00;;;12.50;99.90;;;;;;4987466;28;20067;-89
2022/12/26 09:53:06;;;;;;;2.22;0.80;;;12.50;99.90;;;;;;4981457;28;20018;-87
2022/12/26 09:55:55;;;;;;;2.42;0.95;;;12.50;99.90;;;;;;4963572;28;20033;-88
2022/12/26 09:58:31;;;;;;;3.25;1.10;;;12.50;99.90;;;;;;4997117;28;20364;-88
2022/12/26 10:01:17;;;;;;;2.67;0.98;;;12.50;99.90;;;;;;4917984;28;20057;-88
2022/12/26 10:03:55;;;;;;;2.13;1.13;;;12.50;99.90;;;;;;4964779;28;20377;-87
2022/12/26 10:06:29;;;;;;;1.75;1.05;;;12.50;99.90;;;;;;4990868;28;20065;-88
2022/12/26 10:09:18;;;;;;;2.72;1.30;;;12.60;99.90;;;;;;4977781;28;20505;-86
2022/12/26 10:12:05;;;;;;;2.42;1.20;;;12.50;99.90;;;;;;4973154;28;20030;-85
2022/12/26 10:14:53;;;;;;;2.38;1.27;;;12.50;99.90;;;;;;4974185;28;20331;-86
2022/12/26 10:17:25;;;;;;;2.70;1.07;;;12.60;99.90;;;;;;4964322;28;20067;-86
2022/12/26 10:20:03;;;;;;;1.98;0.93;;;12.60;99.90;;;;;;4967072;28;20499;-84
2022/12/26 10:22:52;;;;;;;2.90;1.17;;;12.60;99.90;;;;;;5000366;28;20338;-85
2022/12/26 10:25:24;;;;;;;2.42;1.20;;;12.60;99.90;;;;;;4979093;28;20057;-85
2022/12/26 10:27:51;;;;;;;2.05;1.10;;;12.60;99.90;;;;;;4977438;28;20147;-85
2022/12/26 10:30:31;;;;;;;3.70;1.30;;;12.60;99.90;;;;;;4973313;28;20467;-85
2022/12/26 10:33:03;;;;;;;2.00;1.20;;;12.60;99.90;;;;;;4948688;28;20525;-85
2022/12/26 10:35:34;;;;;;;1.85;1.10;;;12.60;99.90;;;;;;4974608;28;20116;-86
2022/12/26 10:38:31;;;;;;;1.60;1.05;;;12.60;99.90;;;;;;4974693;28;20025;-84
2022/12/26 10:41:04;;;;;;;1.83;0.98;;;12.70;99.90;;;;;;4989924;28;20664;-85
2022/12/26 10:43:33;;;;;;;1.60;1.10;;;12.70;99.90;;;;;;4982729;28;20045;-85
2022/12/26 10:46:04;;;;;;;2.35;1.17;;;12.70;99.90;;;;;;4961147;28;20596;-86
2022/12/26 10:48:30;;;;;;;1.10;0.90;;;12.70;99.90;;;;;;4954854;28;20255;-85
2022/12/26 10:50:56;;;;;;;1.67;1.00;;;12.70;99.90;;;;;;4961278;28;20179;-87
2022/12/26 10:53:22;;;;;;;2.10;0.90;;;12.60;99.90;;;;;;4968372;28;20029;-87
2022/12/26 10:55:48;;;;;;;2.10;0.80;;;12.60;99.90;;;;;;4970385;28;20398;-87
2022/12/26 10:58:31;;;;;;;1.65;0.80;;;12.60;99.90;;;;;;4972839;28;20493;-87
2022/12/26 11:01:31;;;;;;;1.85;0.60;;;12.60;99.90;;;;;;4983512;28;20720;-89
2022/12/26 11:04:18;;;;;;;1.13;0.50;;;12.50;99.90;;;;;;4964228;28;20041;-87
2022/12/26 11:06:46;;;;;;;1.75;0.60;;;12.50;99.90;;;;;;4969288;28;20050;-87
2022/12/26 11:09:42;;;;;;;0.98;0.60;;;12.40;99.90;;;;;;5000658;28;20355;-87
2022/12/26 11:12:41;;;;;;;0.70;0.50;;;12.40;99.90;;;;;;4971537;28;20046;-88
2022/12/26 11:15:38;;;;;;;1.50;0.60;;;12.30;99.90;;;;;;4946234;28;20529;-86
2022/12/26 11:18:29;;;;;;;1.00;0.50;;;12.30;99.90;;;;;;4962610;28;20029;-86
2022/12/26 11:21:11;;;;;;;1.83;0.50;;;12.30;99.90;;;;;;4986343;28;20100;-86
2022/12/26 11:23:37;;;;;;;2.47;0.70;;;12.30;99.90;;;;;;4982050;28;20033;-86
2022/12/26 11:26:20;;;;;;;1.58;0.47;;;12.30;99.90;;;;;;4980037;28;20250;-88
2022/12/26 11:28:46;;;;;;;1.93;0.50;;;12.30;99.90;;;;;;4972023;28;20030;-87
2022/12/26 11:31:26;;;;;;;1.48;0.70;;;12.30;99.90;;;;;;4968630;28;20116;-86
2022/12/26 11:33:52;;;;;;;2.20;0.80;;;12.40;99.90;;;;;;4954548;28;25951;-87
2022/12/26 11:36:22;;;;;;;1.55;0.80;;;12.40;99.90;;;;;;4972893;28;20029;-88
2022/12/26 11:39:15;;;;;;;0.97;0.60;;;12.40;99.90;;;;;;4995115;28;20068;-86
2022/12/26 11:41:42;;;;;;;1.30;0.50;;;12.30;99.90;;;;;;4969592;28;20033;-86
2022/12/26 11:44:08;;;;;;;1.73;0.70;;;12.30;99.90;;;;;;4974405;28;20117;-86
2022/12/26 11:46:37;;;;;;;1.67;0.63;;;12.30;99.90;;;;;;4990548;28;20037;-87
2022/12/26 11:49:04;;;;;;;0.93;0.60;;;12.20;99.90;;;;;;4943204;28;20030;-86
2022/12/26 11:51:41;;;;;;;2.00;0.90;;;12.20;99.90;;;;;;4972524;28;20099;-87
2022/12/26 11:54:22;;;;;;;1.27;0.65;;;12.20;99.90;;;;;;4982748;28;20475;-86
2022/12/26 11:56:48;;;;;;;2.13;0.73;;;12.20;99.90;;;;;;4993065;28;20076;-86
2022/12/26 11:59:19;;;;;;;2.33;0.60;;;12.20;99.90;;;;;;4984673;28;20037;-86
2022/12/26 12:01:45;;;;;;;2.57;0.60;;;12.20;99.90;;;;;;4981398;28;20028;-86
2022/12/26 12:04:11;;;;;;;1.63;0.70;;;12.20;99.90;;;;;;4921736;28;20470;-86
2022/12/26 12:06:51;;;;;;;3.22;0.88;;;12.20;99.90;;;;;;4982218;28;20096;-85
2022/12/26 12:09:17;;;;;;;1.30;0.70;;;12.20;99.90;;;;;;4990457;28;20316;-86
2022/12/26 12:11:46;;;;;;;1.60;0.90;;;12.20;99.90;;;;;;4980122;28;20037;-86
2022/12/26 12:14:24;;;;;;;2.88;0.80;;;12.20;99.90;;;;;;4997947;28;20025;-86
2022/12/26 12:16:58;;;;;;;1.73;0.65;;;12.10;99.90;;;;;;4984531;28;20026;-86
2022/12/26 12:19:26;;;;;;;2.67;0.70;;;12.10;99.90;;;;;;4938722;28;20250;-86
2022/12/26 12:22:07;;;;;;;2.85;0.80;;;12.00;99.90;;;;;;4973429;28;20441;-86
2022/12/26 12:24:38;;;;;;;1.48;0.70;;;12.00;99.90;;;;;;4970618;28;20034;-86
2022/12/26 12:27:20;;;;;;;1.38;0.60;;;12.00;99.90;;;;;;4991678;28;20030;-86
2022/12/26 12:30:03;;;;;;;3.72;0.85;;;11.90;99.90;;;;;;5001368;28;20030;-86
2022/12/26 12:32:33;;;;;;;2.70;0.87;;;11.90;99.90;;;;;;4995084;28;20325;-87
2022/12/26 12:35:13;;;;;;;2.13;0.80;;;11.80;99.90;;;;;;4982370;28;20379;-85
2022/12/26 12:38:17;;;;;;;2.05;0.90;;;11.80;99.90;;;;;;4983689;28;20072;-86
2022/12/26 12:40:51;;;;;;;1.70;0.73;;;11.80;99.90;;;;;;4995183;28;20029;-86
2022/12/26 12:48:39;;;;;;;1.38;0.63;;;11.80;99.90;;;;;;4969644;28;21054;-86
2022/12/26 12:51:27;;;;;;;1.15;0.60;;;11.80;99.90;;;;;;4954358;23;20088;-86
2022/12/26 12:53:59;;;;;;;1.83;0.70;;;11.70;99.90;;;;;;4972239;28;20507;-85
2022/12/26 12:57:12;;;;;;;2.60;0.60;;;11.70;99.90;;;;;;4955416;28;20045;-83
2022/12/26 12:59:53;;;;;;;1.47;0.50;;;11.60;99.90;;;;;;4972015;28;20635;-87
2022/12/26 13:02:30;;;;;;;2.58;0.82;;;11.50;99.90;;;;;;4975426;28;20075;-86
2022/12/26 13:05:24;;;;;;;3.50;0.82;;;11.50;99.90;;;;;;4979072;28;20022;-87
2022/12/26 13:08:09;;;;;;;1.17;0.70;;;11.40;99.90;;;;;;4945866;28;20647;-85
2022/12/26 13:10:44;;;;;;;1.00;0.47;;;11.30;99.90;;;;;;4938915;28;20072;-85
2022/12/26 13:13:45;;;;;;;2.50;0.60;;;11.30;99.90;;;;;;4989312;28;20129;-85
2022/12/26 13:16:17;;;;;;;2.10;0.50;;;11.20;99.90;;;;;;4962743;28;20053;-83
2022/12/26 13:18:52;;;;;;;2.38;0.50;;;11.20;99.90;;;;;;4955159;28;20401;-86
2022/12/26 13:21:20;;;;;;;2.03;0.50;;;11.20;99.90;;;;;;4970334;28;20072;-85
2022/12/26 13:27:04;;;;;;;0.97;0.70;;;11.20;99.90;;;;;;4995687;28;20834;-85
2022/12/26 13:29:33;;;;;;;0.70;0.50;;;11.20;99.90;;;;;;4961911;28;20666;-87
2022/12/26 13:32:00;;;;;;;1.95;0.75;;;11.20;99.90;;;;;;4965107;28;20531;-85
2022/12/26 13:34:26;;;;;;;1.60;0.60;;;11.20;99.90;;;;;;4956109;28;20018;-84
2022/12/26 13:36:54;;;;;;;1.65;0.70;;;11.20;99.90;;;;;;4965323;28;20017;-84
2022/12/26 13:39:26;;;;;;;1.33;0.60;;;11.20;99.90;;;;;;4967039;28;20047;-85
2022/12/26 13:44:52;;;;;;;3.55;0.70;;;11.20;99.90;;;;;;4970644;28;20108;-87
2022/12/26 13:47:36;;;;;;;2.42;0.63;;;11.20;99.90;;;;;;4968227;28;20033;-86
2022/12/26 13:50:39;;;;;;;3.38;0.70;;;11.10;99.90;;;;;;4981799;28;20382;-85
2022/12/26 13:53:24;;;;;;;2.83;0.80;;;11.10;99.90;;;;;;4926198;28;20157;-84
2022/12/26 13:56:09;;;;;;;1.23;0.60;;;11.10;99.90;;;;;;4918660;28;20104;-87
2022/12/26 13:58:40;;;;;;;2.28;0.82;;;11.10;99.90;;;;;;4946803;28;20036;-84
2022/12/26 14:01:24;;;;;;;2.70;0.80;;;11.00;99.90;;;;;;4932418;28;20045;-86
2022/12/26 14:03:59;;;;;;;2.78;0.80;;;11.00;99.90;;;;;;4937238;28;20397;-85
2022/12/26 14:06:28;;;;;;;1.97;0.63;;;10.90;99.90;;;;;;4936962;28;20488;-87
2022/12/26 14:09:06;;;;;;;2.65;0.80;;;10.90;99.90;;;;;;4942246;28;20321;-85
2022/12/26 14:11:41;;;;;;;1.52;0.63;;;10.90;99.90;;;;;;4925538;28;20048;-84
2022/12/26 14:14:37;;;;;;;1.50;0.70;;;10.80;99.90;;;;;;4930950;28;20378;-84
2022/12/26 14:17:33;;;;;;;1.92;0.63;;;10.80;99.90;;;;;;4936127;28;20555;-85
2022/12/26 14:20:06;;;;;;;1.97;0.63;;;10.70;99.90;;;;;;4970581;28;20034;-85
2022/12/26 14:23:03;;;;;;;2.13;0.80;;;10.60;99.90;;;;;;4934303;28;20049;-86
2022/12/26 14:25:43;;;;;;;1.77;0.70;;;10.60;99.90;;;;;;4912540;28;20057;-84
2022/12/26 14:28:29;;;;;;;3.75;0.90;;;10.50;99.90;;;;;;4960554;28;20038;-83
2022/12/26 14:31:28;;;;;;;1.13;0.70;;;10.50;99.90;;;;;;4943147;28;20036;-84
2022/12/26 14:34:13;;;;;;;1.00;0.60;;;10.40;99.90;;;;;;4963255;28;20033;-84
2022/12/26 14:36:48;;;;;;;1.52;0.70;;;10.30;99.90;;;;;;4935442;28;20486;-84
2022/12/26 14:39:32;;;;;;;2.97;0.80;;;10.20;99.90;;;;;;4938251;28;20304;-88
2022/12/26 14:44:58;;;;;;;1.20;0.70;;;10.10;99.90;;;;;;4952479;28;20029;-87
2022/12/26 14:47:43;;;;;;;2.87;0.80;;;10.00;99.90;;;;;;4934568;28;20030;-87
2022/12/26 14:50:33;;;;;;;1.58;0.57;;;9.80;99.90;;;;;;4949433;28;20060;-85
2022/12/26 14:53:27;;;;;;;2.75;0.70;;;9.70;99.90;;;;;;4943489;28;20839;-84
2022/12/26 14:56:02;;;;;;;1.77;0.80;;;9.60;99.90;;;;;;4938209;28;20030;-84
2022/12/26 14:58:34;;;;;;;1.88;0.70;;;9.50;99.90;;;;;;4943412;28;20614;-84
2022/12/26 15:01:09;;;;;;;1.70;0.70;;;9.50;99.90;;;;;;4968775;28;20442;-84
2022/12/26 15:03:44;;;;;;;1.63;0.70;;;9.40;99.90;;;;;;4957552;28;20418;-85
2022/12/26 15:06:29;;;;;;;2.28;0.90;;;9.30;99.90;;;;;;4924906;28;20096;-84
2022/12/26 15:09:16;;;;;;;4.65;1.15;;;9.20;99.90;;;;;;4942289;28;20498;-86
2022/12/26 15:12:17;;;;;;;1.83;0.70;;;9.20;99.90;;;;;;4922397;28;20030;-84
2022/12/26 15:15:02;;;;;;;2.87;1.00;;;9.10;99.90;;;;;;4971278;28;20649;-85
2022/12/26 15:17:49;;;;;;;2.08;0.80;;;9.10;99.90;;;;;;4949015;28;20330;-85
2022/12/26 15:20:41;;;;;;;2.38;0.80;;;9.00;99.90;;;;;;4938187;28;20876;-85
2022/12/26 15:23:58;;;;;;;0.80;0.70;;;8.90;99.90;;;;;;4957153;28;20509;-85
2022/12/26 15:26:45;;;;;;;2.85;0.70;;;8.90;99.90;;;;;;4912216;28;20313;-84
2022/12/26 15:29:20;;;;;;;1.40;0.70;;;8.80;99.90;;;;;;4890431;28;20633;-84
2022/12/26 15:31:58;;;;;;;1.88;0.77;;;8.70;99.90;;;;;;4930535;28;20176;-84
2022/12/26 15:34:31;;;;;;;2.03;0.80;;;8.70;99.90;;;;;;4944794;28;20149;-85
2022/12/26 15:37:03;;;;;;;1.00;0.52;;;8.60;99.90;;;;;;4959431;28;20065;-84